sensor_id;sensor_type;location;lat;lon;timestamp;pressure;altitude;pressure_sealevel;temperature;humidity
69780;BME280;57052;55.602;38.096;2023-05-23T00:01:21;100696.72;;;15.54;65.73
69780;BME280;57052;55.602;38.096;2023-05-23T00:03:47;100687.25;;;15.46;65.51
69780;BME280;57052;55.602;38.096;2023-05-23T00:06:13;100699.22;;;15.50;65.74
69780;BME280;57052;55.602;38.096;2023-05-23T00:08:39;100685.22;;;15.33;65.61
69780;BME280;57052;55.602;38.096;2023-05-23T00:11:05;100690.88;;;15.36;65.57
69780;BME280;57052;55.602;38.096;2023-05-23T00:13:31;100704.47;;;15.41;65.57
69780;BME280;57052;55.602;38.096;2023-05-23T00:15:59;100683.31;;;15.28;65.57
69780;BME280;57052;55.602;38.096;2023-05-23T00:18:25;100701.78;;;15.36;65.65
69780;BME280;57052;55.602;38.096;2023-05-23T00:20:50;100695.06;;;15.29;65.70
69780;BME280;57052;55.602;38.096;2023-05-23T00:23:16;100704.06;;;15.29;65.71
69780;BME280;57052;55.602;38.096;2023-05-23T00:25:46;100694.53;;;15.27;65.80
69780;BME280;57052;55.602;38.096;2023-05-23T00:28:17;100691.63;;;15.18;65.88
69780;BME280;57052;55.602;38.096;2023-05-23T00:30:43;100690.28;;;15.16;65.78
69780;BME280;57052;55.602;38.096;2023-05-23T00:33:08;100700.63;;;15.19;65.48
69780;BME280;57052;55.602;38.096;2023-05-23T00:35:34;100698.50;;;15.11;65.90
69780;BME280;57052;55.602;38.096;2023-05-23T00:38:00;100697.66;;;15.15;65.72
69780;BME280;57052;55.602;38.096;2023-05-23T00:40:26;100694.38;;;15.13;65.86
69780;BME280;57052;55.602;38.096;2023-05-23T00:42:52;100685.47;;;15.08;65.63
69780;BME280;57052;55.602;38.096;2023-05-23T00:45:18;100689.59;;;15.05;65.52
69780;BME280;57052;55.602;38.096;2023-05-23T00:47:46;100702.09;;;15.06;65.60
69780;BME280;57052;55.602;38.096;2023-05-23T00:50:13;100702.34;;;15.10;65.62
69780;BME280;57052;55.602;38.096;2023-05-23T00:52:41;100704.56;;;15.08;65.56
69780;BME280;57052;55.602;38.096;2023-05-23T00:55:09;100704.81;;;15.06;65.53
69780;BME280;57052;55.602;38.096;2023-05-23T00:57:35;100710.59;;;15.05;65.53
69780;BME280;57052;55.602;38.096;2023-05-23T01:00:11;100714.69;;;15.02;65.40
69780;BME280;57052;55.602;38.096;2023-05-23T01:02:47;100695.94;;;14.96;65.83
69780;BME280;57052;55.602;38.096;2023-05-23T01:05:16;100700.00;;;14.98;65.73
69780;BME280;57052;55.602;38.096;2023-05-23T01:07:44;100704.66;;;14.98;65.33
69780;BME280;57052;55.602;38.096;2023-05-23T01:10:12;100692.94;;;14.97;65.57
69780;BME280;57052;55.602;38.096;2023-05-23T01:15:41;100693.03;;;14.87;65.56
69780;BME280;57052;55.602;38.096;2023-05-23T01:18:17;100697.09;;;14.90;65.47
69780;BME280;57052;55.602;38.096;2023-05-23T01:20:58;100681.66;;;14.80;65.60
69780;BME280;57052;55.602;38.096;2023-05-23T01:26:40;100693.94;;;14.77;65.91
69780;BME280;57052;55.602;38.096;2023-05-23T01:31:56;100692.25;;;14.82;65.23
69780;BME280;57052;55.602;38.096;2023-05-23T01:34:22;100691.94;;;14.83;65.17
69780;BME280;57052;55.602;38.096;2023-05-23T01:36:49;100683.81;;;14.78;64.95
69780;BME280;57052;55.602;38.096;2023-05-23T01:39:18;100699.34;;;14.83;64.84
69780;BME280;57052;55.602;38.096;2023-05-23T01:41:44;100675.69;;;14.73;64.94
69780;BME280;57052;55.602;38.096;2023-05-23T01:44:10;100697.13;;;14.85;64.81
69780;BME280;57052;55.602;38.096;2023-05-23T01:46:36;100691.69;;;14.85;64.70
69780;BME280;57052;55.602;38.096;2023-05-23T01:49:06;100688.47;;;14.77;64.18
69780;BME280;57052;55.602;38.096;2023-05-23T01:51:33;100693.06;;;14.82;64.74
69780;BME280;57052;55.602;38.096;2023-05-23T01:53:59;100698.22;;;14.84;64.49
69780;BME280;57052;55.602;38.096;2023-05-23T01:56:26;100695.22;;;14.85;64.55
69780;BME280;57052;55.602;38.096;2023-05-23T01:58:53;100686.22;;;14.85;64.66
69780;BME280;57052;55.602;38.096;2023-05-23T02:01:19;100672.91;;;14.78;64.53
69780;BME280;57052;55.602;38.096;2023-05-23T02:03:45;100689.47;;;14.87;64.38
69780;BME280;57052;55.602;38.096;2023-05-23T02:06:11;100692.22;;;14.87;64.37
69780;BME280;57052;55.602;38.096;2023-05-23T02:08:37;100684.91;;;14.82;64.57
69780;BME280;57052;55.602;38.096;2023-05-23T02:11:03;100689.47;;;14.87;64.27
69780;BME280;57052;55.602;38.096;2023-05-23T02:13:29;100692.22;;;14.87;64.41
69780;BME280;57052;55.602;38.096;2023-05-23T02:15:56;100691.38;;;14.86;64.31
69780;BME280;57052;55.602;38.096;2023-05-23T02:18:22;100696.56;;;14.88;64.07
69780;BME280;57052;55.602;38.096;2023-05-23T02:21:10;100692.72;;;14.89;64.51
69780;BME280;57052;55.602;38.096;2023-05-23T02:23:36;100699.00;;;14.89;64.23
69780;BME280;57052;55.602;38.096;2023-05-23T02:26:01;100688.41;;;14.88;64.18
69780;BME280;57052;55.602;38.096;2023-05-23T02:28:28;100671.56;;;14.75;64.24
69780;BME280;57052;55.602;38.096;2023-05-23T02:30:54;100691.06;;;14.93;64.19
69780;BME280;57052;55.602;38.096;2023-05-23T02:33:19;100701.69;;;14.94;63.80
69780;BME280;57052;55.602;38.096;2023-05-23T02:35:46;100703.84;;;14.97;63.66
69780;BME280;57052;55.602;38.096;2023-05-23T02:38:12;100697.00;;;15.00;63.71
69780;BME280;57052;55.602;38.096;2023-05-23T02:40:37;100698.03;;;15.04;63.47
69780;BME280;57052;55.602;38.096;2023-05-23T02:43:03;100709.19;;;15.07;63.46
69780;BME280;57052;55.602;38.096;2023-05-23T02:45:29;100698.81;;;15.09;63.27
69780;BME280;57052;55.602;38.096;2023-05-23T02:47:55;100689.53;;;15.10;63.15
69780;BME280;57052;55.602;38.096;2023-05-23T02:50:20;100694.34;;;15.18;62.98
69780;BME280;57052;55.602;38.096;2023-05-23T02:52:46;100698.13;;;15.22;63.36
69780;BME280;57052;55.602;38.096;2023-05-23T02:55:12;100697.25;;;15.27;63.16
69780;BME280;57052;55.602;38.096;2023-05-23T02:57:37;100688.22;;;15.31;63.26
69780;BME280;57052;55.602;38.096;2023-05-23T03:00:03;100697.47;;;15.35;63.20
69780;BME280;57052;55.602;38.096;2023-05-23T03:02:31;100670.22;;;15.30;63.05
69780;BME280;57052;55.602;38.096;2023-05-23T03:04:57;100667.78;;;15.29;62.83
69780;BME280;57052;55.602;38.096;2023-05-23T03:07:23;100691.31;;;15.49;63.10
69780;BME280;57052;55.602;38.096;2023-05-23T03:09:50;100685.53;;;15.55;62.88
69780;BME280;57052;55.602;38.096;2023-05-23T03:12:15;100686.25;;;15.61;62.95
69780;BME280;57052;55.602;38.096;2023-05-23T03:14:41;100681.34;;;15.63;62.64
69780;BME280;57052;55.602;38.096;2023-05-23T03:17:07;100682.31;;;15.72;62.64
69780;BME280;57052;55.602;38.096;2023-05-23T03:19:32;100679.50;;;15.77;62.61
69780;BME280;57052;55.602;38.096;2023-05-23T03:21:58;100675.63;;;15.83;62.66
69780;BME280;57052;55.602;38.096;2023-05-23T03:24:23;100665.56;;;15.78;62.42
69780;BME280;57052;55.602;38.096;2023-05-23T03:26:49;100682.03;;;15.92;62.42
69780;BME280;57052;55.602;38.096;2023-05-23T03:29:15;100664.31;;;15.89;62.30
69780;BME280;57052;55.602;38.096;2023-05-23T03:31:40;100678.34;;;16.01;62.27
69780;BME280;57052;55.602;38.096;2023-05-23T03:34:06;100675.03;;;16.04;62.23
69780;BME280;57052;55.602;38.096;2023-05-23T03:36:32;100679.59;;;16.09;62.37
69780;BME280;57052;55.602;38.096;2023-05-23T03:38:58;100669.28;;;16.06;62.56
69780;BME280;57052;55.602;38.096;2023-05-23T03:41:24;100681.69;;;16.17;62.27
69780;BME280;57052;55.602;38.096;2023-05-23T03:43:50;100681.63;;;16.22;62.22
69780;BME280;57052;55.602;38.096;2023-05-23T03:46:16;100682.63;;;16.26;62.40
69780;BME280;57052;55.602;38.096;2023-05-23T03:48:42;100685.59;;;16.30;62.37
69780;BME280;57052;55.602;38.096;2023-05-23T03:51:07;100686.09;;;16.32;62.31
69780;BME280;57052;55.602;38.096;2023-05-23T03:53:33;100674.59;;;16.35;62.29
69780;BME280;57052;55.602;38.096;2023-05-23T03:55:59;100679.47;;;16.38;62.53
69780;BME280;57052;55.602;38.096;2023-05-23T03:58:24;100680.78;;;16.40;62.24
69780;BME280;57052;55.602;38.096;2023-05-23T04:00:50;100686.47;;;16.44;62.19
69780;BME280;57052;55.602;38.096;2023-05-23T04:03:17;100680.41;;;16.47;62.21
69780;BME280;57052;55.602;38.096;2023-05-23T04:05:43;100674.34;;;16.50;62.26
69780;BME280;57052;55.602;38.096;2023-05-23T04:08:08;100676.03;;;16.46;62.22
69780;BME280;57052;55.602;38.096;2023-05-23T04:10:34;100676.78;;;16.51;62.42
69780;BME280;57052;55.602;38.096;2023-05-23T04:13:00;100689.28;;;16.57;62.59
69780;BME280;57052;55.602;38.096;2023-05-23T04:15:26;100671.56;;;16.55;62.62
69780;BME280;57052;55.602;38.096;2023-05-23T04:17:52;100679.38;;;16.61;62.65
69780;BME280;57052;55.602;38.096;2023-05-23T04:20:19;100664.19;;;16.55;62.42
69780;BME280;57052;55.602;38.096;2023-05-23T04:22:44;100679.00;;;16.68;62.85
69780;BME280;57052;55.602;38.096;2023-05-23T04:25:10;100689.22;;;16.62;62.93
69780;BME280;57052;55.602;38.096;2023-05-23T04:27:36;100699.66;;;16.74;63.27
69780;BME280;57052;55.602;38.096;2023-05-23T04:30:06;100697.16;;;16.78;63.37
69780;BME280;57052;55.602;38.096;2023-05-23T04:32:33;100700.91;;;16.82;63.30
69780;BME280;57052;55.602;38.096;2023-05-23T04:34:59;100709.63;;;16.84;63.16
69780;BME280;57052;55.602;38.096;2023-05-23T04:37:27;100704.97;;;16.84;63.33
69780;BME280;57052;55.602;38.096;2023-05-23T04:39:53;100699.91;;;16.78;62.60
69780;BME280;57052;55.602;38.096;2023-05-23T04:42:19;100696.84;;;16.79;63.03
69780;BME280;57052;55.602;38.096;2023-05-23T04:44:52;100725.94;;;16.89;62.77
69780;BME280;57052;55.602;38.096;2023-05-23T04:47:18;100712.81;;;16.91;62.37
69780;BME280;57052;55.602;38.096;2023-05-23T04:49:44;100720.69;;;16.92;62.43
69780;BME280;57052;55.602;38.096;2023-05-23T04:52:09;100727.00;;;16.93;62.09
69780;BME280;57052;55.602;38.096;2023-05-23T04:54:35;100716.56;;;16.95;61.95
69780;BME280;57052;55.602;38.096;2023-05-23T04:57:02;100714.03;;;16.98;61.71
69780;BME280;57052;55.602;38.096;2023-05-23T04:59:27;100711.09;;;16.95;61.47
69780;BME280;57052;55.602;38.096;2023-05-23T05:01:53;100704.94;;;17.03;61.41
69780;BME280;57052;55.602;38.096;2023-05-23T05:04:19;100716.28;;;17.10;61.54
69780;BME280;57052;55.602;38.096;2023-05-23T05:06:44;100704.34;;;17.06;61.08
69780;BME280;57052;55.602;38.096;2023-05-23T05:09:12;100714.97;;;17.21;61.15
69780;BME280;57052;55.602;38.096;2023-05-23T05:11:37;100715.41;;;17.28;60.84
69780;BME280;57052;55.602;38.096;2023-05-23T05:14:03;100720.78;;;17.33;60.82
69780;BME280;57052;55.602;38.096;2023-05-23T05:16:29;100720.69;;;17.38;60.83
69780;BME280;57052;55.602;38.096;2023-05-23T05:18:55;100694.84;;;17.30;61.08
69780;BME280;57052;55.602;38.096;2023-05-23T05:21:21;100704.47;;;17.42;60.85
69780;BME280;57052;55.602;38.096;2023-05-23T05:23:47;100705.69;;;17.49;60.72
69780;BME280;57052;55.602;38.096;2023-05-23T05:26:12;100704.69;;;17.45;60.68
69780;BME280;57052;55.602;38.096;2023-05-23T05:28:38;100703.69;;;17.55;60.69
69780;BME280;57052;55.602;38.096;2023-05-23T05:31:05;100702.28;;;17.57;60.76
69780;BME280;57052;55.602;38.096;2023-05-23T05:33:31;100701.69;;;17.60;60.97
69780;BME280;57052;55.602;38.096;2023-05-23T05:36:04;100706.03;;;17.61;60.86
69780;BME280;57052;55.602;38.096;2023-05-23T05:38:30;100694.47;;;17.64;61.10
69780;BME280;57052;55.602;38.096;2023-05-23T05:40:56;100690.31;;;17.67;61.07
69780;BME280;57052;55.602;38.096;2023-05-23T05:43:22;100683.22;;;17.66;60.79
69780;BME280;57052;55.602;38.096;2023-05-23T05:45:48;100688.69;;;17.66;60.83
69780;BME280;57052;55.602;38.096;2023-05-23T05:48:13;100701.47;;;17.70;61.09
69780;BME280;57052;55.602;38.096;2023-05-23T05:50:39;100698.91;;;17.74;61.10
69780;BME280;57052;55.602;38.096;2023-05-23T05:53:04;100696.81;;;17.71;60.91
69780;BME280;57052;55.602;38.096;2023-05-23T05:55:32;100702.19;;;17.76;60.81
69780;BME280;57052;55.602;38.096;2023-05-23T05:57:58;100693.66;;;17.77;60.92
69780;BME280;57052;55.602;38.096;2023-05-23T06:00:24;100689.16;;;17.81;60.78
69780;BME280;57052;55.602;38.096;2023-05-23T06:02:49;100695.34;;;17.87;60.45
69780;BME280;57052;55.602;38.096;2023-05-23T06:05:22;100688.97;;;17.91;60.16
69780;BME280;57052;55.602;38.096;2023-05-23T06:07:48;100688.25;;;18.00;60.19
69780;BME280;57052;55.602;38.096;2023-05-23T06:10:14;100676.34;;;18.04;60.24
69780;BME280;57052;55.602;38.096;2023-05-23T06:12:40;100681.00;;;18.17;60.13
69780;BME280;57052;55.602;38.096;2023-05-23T06:15:06;100675.59;;;18.26;60.18
69780;BME280;57052;55.602;38.096;2023-05-23T06:17:34;100666.63;;;18.34;60.31
69780;BME280;57052;55.602;38.096;2023-05-23T06:19:59;100660.88;;;18.44;59.99
69780;BME280;57052;55.602;38.096;2023-05-23T06:22:25;100658.47;;;18.56;59.67
69780;BME280;57052;55.602;38.096;2023-05-23T06:24:51;100660.28;;;18.69;59.80
69780;BME280;57052;55.602;38.096;2023-05-23T06:27:17;100645.34;;;18.75;59.51
69780;BME280;57052;55.602;38.096;2023-05-23T06:29:42;100652.38;;;18.90;59.51
69780;BME280;57052;55.602;38.096;2023-05-23T06:32:08;100634.00;;;18.99;59.17
69780;BME280;57052;55.602;38.096;2023-05-23T06:34:33;100634.06;;;19.07;58.60
69780;BME280;57052;55.602;38.096;2023-05-23T06:36:59;100631.84;;;19.18;58.59
69780;BME280;57052;55.602;38.096;2023-05-23T06:39:25;100627.34;;;19.22;58.39
69780;BME280;57052;55.602;38.096;2023-05-23T06:41:50;100627.22;;;19.36;58.53
69780;BME280;57052;55.602;38.096;2023-05-23T06:44:16;100620.81;;;19.40;58.40
69780;BME280;57052;55.602;38.096;2023-05-23T06:46:44;100615.81;;;19.42;58.17
69780;BME280;57052;55.602;38.096;2023-05-23T06:49:10;100586.69;;;19.33;58.21
69780;BME280;57052;55.602;38.096;2023-05-23T06:51:36;100629.75;;;19.63;58.13
69780;BME280;57052;55.602;38.096;2023-05-23T06:54:01;100622.66;;;19.70;57.92
69780;BME280;57052;55.602;38.096;2023-05-23T06:56:27;100616.19;;;19.75;57.95
69780;BME280;57052;55.602;38.096;2023-05-23T06:58:52;100617.34;;;19.82;57.54
69780;BME280;57052;55.602;38.096;2023-05-23T07:01:18;100627.88;;;19.98;57.64
69780;BME280;57052;55.602;38.096;2023-05-23T07:03:44;100623.97;;;20.07;57.55
69780;BME280;57052;55.602;38.096;2023-05-23T07:06:11;100618.97;;;20.09;57.22
69780;BME280;57052;55.602;38.096;2023-05-23T07:08:37;100626.25;;;20.22;57.17
69780;BME280;57052;55.602;38.096;2023-05-23T07:11:03;100625.47;;;20.30;57.26
69780;BME280;57052;55.602;38.096;2023-05-23T07:13:30;100634.50;;;20.39;56.95
69780;BME280;57052;55.602;38.096;2023-05-23T07:15:56;100628.53;;;20.46;56.77
69780;BME280;57052;55.602;38.096;2023-05-23T07:18:22;100628.84;;;20.53;56.58
69780;BME280;57052;55.602;38.096;2023-05-23T07:20:48;100634.19;;;20.58;56.51
69780;BME280;57052;55.602;38.096;2023-05-23T07:23:16;100631.09;;;20.60;56.44
69780;BME280;57052;55.602;38.096;2023-05-23T07:25:42;100646.13;;;20.71;56.48
69780;BME280;57052;55.602;38.096;2023-05-23T07:28:08;100644.81;;;20.77;56.04
69780;BME280;57052;55.602;38.096;2023-05-23T07:30:34;100604.75;;;20.59;56.08
69780;BME280;57052;55.602;38.096;2023-05-23T07:33:00;100643.84;;;20.81;56.12
69780;BME280;57052;55.602;38.096;2023-05-23T07:35:26;100646.56;;;20.90;56.00
69780;BME280;57052;55.602;38.096;2023-05-23T07:37:52;100637.50;;;20.89;56.15
69780;BME280;57052;55.602;38.096;2023-05-23T07:40:18;100637.00;;;20.96;56.13
69780;BME280;57052;55.602;38.096;2023-05-23T07:42:45;100638.47;;;20.93;56.20
69780;BME280;57052;55.602;38.096;2023-05-23T07:45:11;100636.38;;;20.90;55.95
69780;BME280;57052;55.602;38.096;2023-05-23T07:47:37;100642.53;;;20.87;55.85
69780;BME280;57052;55.602;38.096;2023-05-23T07:50:04;100642.06;;;20.85;55.93
69780;BME280;57052;55.602;38.096;2023-05-23T07:52:31;100652.88;;;20.90;56.18
69780;BME280;57052;55.602;38.096;2023-05-23T07:54:57;100661.78;;;20.87;56.38
69780;BME280;57052;55.602;38.096;2023-05-23T07:57:23;100664.72;;;20.82;56.61
69780;BME280;57052;55.602;38.096;2023-05-23T07:59:49;100653.75;;;20.74;56.75
69780;BME280;57052;55.602;38.096;2023-05-23T08:02:19;100662.31;;;20.72;56.68
69780;BME280;57052;55.602;38.096;2023-05-23T08:04:46;100663.28;;;20.68;56.75
69780;BME280;57052;55.602;38.096;2023-05-23T08:07:12;100660.72;;;20.63;56.82
69780;BME280;57052;55.602;38.096;2023-05-23T08:09:38;100658.94;;;20.58;56.98
69780;BME280;57052;55.602;38.096;2023-05-23T08:12:05;100654.72;;;20.52;57.02
69780;BME280;57052;55.602;38.096;2023-05-23T08:14:31;100653.94;;;20.52;57.42
69780;BME280;57052;55.602;38.096;2023-05-23T08:16:57;100652.13;;;20.47;57.71
69780;BME280;57052;55.602;38.096;2023-05-23T08:19:22;100661.22;;;20.48;57.81
69780;BME280;57052;55.602;38.096;2023-05-23T08:21:48;100656.69;;;20.43;58.13
69780;BME280;57052;55.602;38.096;2023-05-23T08:24:14;100646.19;;;20.36;58.14
69780;BME280;57052;55.602;38.096;2023-05-23T08:26:39;100649.41;;;20.38;58.58
69780;BME280;57052;55.602;38.096;2023-05-23T08:29:06;100642.28;;;20.37;58.82
69780;BME280;57052;55.602;38.096;2023-05-23T08:31:33;100645.38;;;20.36;59.11
69780;BME280;57052;55.602;38.096;2023-05-23T08:33:59;100636.66;;;20.34;58.94
69780;BME280;57052;55.602;38.096;2023-05-23T08:36:25;100642.63;;;20.27;59.07
69780;BME280;57052;55.602;38.096;2023-05-23T08:38:51;100638.56;;;20.25;58.99
69780;BME280;57052;55.602;38.096;2023-05-23T08:41:21;100655.25;;;20.28;59.71
69780;BME280;57052;55.602;38.096;2023-05-23T08:43:48;100653.63;;;20.27;59.40
69780;BME280;57052;55.602;38.096;2023-05-23T08:46:14;100631.63;;;20.27;59.47
69780;BME280;57052;55.602;38.096;2023-05-23T08:48:42;100652.47;;;20.37;59.45
69780;BME280;57052;55.602;38.096;2023-05-23T08:51:09;100650.38;;;20.42;59.75
69780;BME280;57052;55.602;38.096;2023-05-23T08:53:41;100645.84;;;20.47;60.00
69780;BME280;57052;55.602;38.096;2023-05-23T08:56:11;100651.50;;;20.50;59.72
69780;BME280;57052;55.602;38.096;2023-05-23T08:58:38;100653.94;;;20.52;59.55
69780;BME280;57052;55.602;38.096;2023-05-23T09:01:06;100667.03;;;20.55;59.63
69780;BME280;57052;55.602;38.096;2023-05-23T09:03:35;100648.09;;;20.53;59.90
69780;BME280;57052;55.602;38.096;2023-05-23T09:06:05;100647.16;;;20.49;60.39
69780;BME280;57052;55.602;38.096;2023-05-23T09:08:35;100653.25;;;20.55;59.95
69780;BME280;57052;55.602;38.096;2023-05-23T09:11:04;100667.53;;;20.57;59.96
69780;BME280;57052;55.602;38.096;2023-05-23T09:13:31;100669.94;;;20.58;60.28
69780;BME280;57052;55.602;38.096;2023-05-23T09:18:37;100668.81;;;20.51;61.37
69780;BME280;57052;55.602;38.096;2023-05-23T09:21:03;100674.31;;;20.51;60.72
69780;BME280;57052;55.602;38.096;2023-05-23T09:23:30;100668.66;;;20.47;60.92
69780;BME280;57052;55.602;38.096;2023-05-23T09:26:01;100675.75;;;20.39;61.83
69780;BME280;57052;55.602;38.096;2023-05-23T09:28:27;100681.13;;;20.36;61.59
69780;BME280;57052;55.602;38.096;2023-05-23T09:31:04;100681.09;;;20.27;63.06
69780;BME280;57052;55.602;38.096;2023-05-23T09:33:38;100672.84;;;20.19;62.49
69780;BME280;57052;55.602;38.096;2023-05-23T09:36:04;100672.19;;;20.13;62.32
69780;BME280;57052;55.602;38.096;2023-05-23T09:38:31;100677.69;;;20.13;62.48
69780;BME280;57052;55.602;38.096;2023-05-23T09:40:58;100673.94;;;20.09;62.96
69780;BME280;57052;55.602;38.096;2023-05-23T09:43:24;100675.25;;;20.03;63.28
69780;BME280;57052;55.602;38.096;2023-05-23T09:48:17;100672.81;;;19.93;63.83
69780;BME280;57052;55.602;38.096;2023-05-23T09:50:44;100666.31;;;19.89;65.01
69780;BME280;57052;55.602;38.096;2023-05-23T09:53:10;100668.09;;;19.85;64.72
69780;BME280;57052;55.602;38.096;2023-05-23T09:55:37;100671.31;;;19.87;65.09
69780;BME280;57052;55.602;38.096;2023-05-23T09:58:05;100652.09;;;19.78;65.45
69780;BME280;57052;55.602;38.096;2023-05-23T10:00:32;100673.94;;;19.83;65.65
69780;BME280;57052;55.602;38.096;2023-05-23T10:05:48;100680.00;;;19.72;67.54
69780;BME280;57052;55.602;38.096;2023-05-23T10:08:28;100681.47;;;19.69;67.91
69780;BME280;57052;55.602;38.096;2023-05-23T10:13:26;100673.06;;;19.66;67.10
69780;BME280;57052;55.602;38.096;2023-05-23T10:15:59;100665.94;;;19.56;67.92
69780;BME280;57052;55.602;38.096;2023-05-23T10:18:34;100677.25;;;19.63;67.95
69780;BME280;57052;55.602;38.096;2023-05-23T10:21:07;100678.38;;;19.62;67.91
69780;BME280;57052;55.602;38.096;2023-05-23T10:23:34;100679.19;;;19.63;67.22
69780;BME280;57052;55.602;38.096;2023-05-23T10:26:03;100674.34;;;19.60;67.34
69780;BME280;57052;55.602;38.096;2023-05-23T10:28:30;100677.25;;;19.63;67.41
69780;BME280;57052;55.602;38.096;2023-05-23T10:30:58;100678.22;;;19.67;67.68
69780;BME280;57052;55.602;38.096;2023-05-23T10:33:32;100684.22;;;19.69;68.75
69780;BME280;57052;55.602;38.096;2023-05-23T10:36:13;100676.34;;;19.76;67.55
69780;BME280;57052;55.602;38.096;2023-05-23T10:41:46;100678.59;;;19.83;68.71
69780;BME280;57052;55.602;38.096;2023-05-23T10:44:27;100674.22;;;19.82;69.09
69780;BME280;57052;55.602;38.096;2023-05-23T10:47:00;100684.63;;;19.94;68.55
69780;BME280;57052;55.602;38.096;2023-05-23T10:49:42;100686.38;;;19.98;68.73
69780;BME280;57052;55.602;38.096;2023-05-23T10:52:10;100685.91;;;20.05;67.72
69780;BME280;57052;55.602;38.096;2023-05-23T10:54:57;100684.78;;;20.06;68.77
69780;BME280;57052;55.602;38.096;2023-05-23T10:57:24;100680.09;;;20.15;67.39
69780;BME280;57052;55.602;38.096;2023-05-23T10:59:53;100666.03;;;20.16;66.91
69780;BME280;57052;55.602;38.096;2023-05-23T11:02:25;100681.75;;;20.24;67.63
69780;BME280;57052;55.602;38.096;2023-05-23T11:05:29;100670.75;;;20.24;68.49
69780;BME280;57052;55.602;38.096;2023-05-23T11:08:09;100679.50;;;20.35;67.78
69780;BME280;57052;55.602;38.096;2023-05-23T11:10:55;100669.16;;;20.40;67.71
69780;BME280;57052;55.602;38.096;2023-05-23T11:13:23;100677.53;;;20.53;66.54
69780;BME280;57052;55.602;38.096;2023-05-23T11:15:50;100667.66;;;20.60;66.14
69780;BME280;57052;55.602;38.096;2023-05-23T11:18:28;100654.22;;;20.67;66.00
69780;BME280;57052;55.602;38.096;2023-05-23T11:20:57;100660.19;;;20.78;65.48
69780;BME280;57052;55.602;38.096;2023-05-23T11:23:39;100652.25;;;20.85;65.86
69780;BME280;57052;55.602;38.096;2023-05-23T11:26:28;100645.56;;;20.94;64.41
69780;BME280;57052;55.602;38.096;2023-05-23T11:28:56;100645.75;;;21.06;64.67
69780;BME280;57052;55.602;38.096;2023-05-23T11:31:22;100633.75;;;21.11;64.10
69780;BME280;57052;55.602;38.096;2023-05-23T11:33:51;100636.59;;;21.23;62.76
69780;BME280;57052;55.602;38.096;2023-05-23T11:36:17;100617.69;;;21.22;62.90
69780;BME280;57052;55.602;38.096;2023-05-23T11:38:43;100628.91;;;21.37;63.11
69780;BME280;57052;55.602;38.096;2023-05-23T11:41:08;100633.78;;;21.40;62.39
69780;BME280;57052;55.602;38.096;2023-05-23T11:43:34;100628.72;;;21.42;61.30
69780;BME280;57052;55.602;38.096;2023-05-23T11:46:07;100621.47;;;21.38;60.35
69780;BME280;57052;55.602;38.096;2023-05-23T11:48:33;100624.31;;;21.50;61.03
69780;BME280;57052;55.602;38.096;2023-05-23T11:50:58;100611.00;;;21.52;60.96
69780;BME280;57052;55.602;38.096;2023-05-23T11:53:26;100603.25;;;21.54;61.12
69780;BME280;57052;55.602;38.096;2023-05-23T11:55:57;100599.59;;;21.62;60.59
69780;BME280;57052;55.602;38.096;2023-05-23T11:58:33;100604.59;;;21.68;60.47
69780;BME280;57052;55.602;38.096;2023-05-23T12:01:04;100598.56;;;21.75;60.37
69780;BME280;57052;55.602;38.096;2023-05-23T12:03:32;100607.44;;;21.81;60.25
69780;BME280;57052;55.602;38.096;2023-05-23T12:05:58;100603.06;;;21.80;59.56
69780;BME280;57052;55.602;38.096;2023-05-23T12:08:26;100592.22;;;21.74;59.19
69780;BME280;57052;55.602;38.096;2023-05-23T12:10:55;100601.94;;;21.81;59.29
69780;BME280;57052;55.602;38.096;2023-05-23T12:13:25;100592.22;;;21.74;59.12
69780;BME280;57052;55.602;38.096;2023-05-23T12:15:56;100585.72;;;21.79;59.16
69780;BME280;57052;55.602;38.096;2023-05-23T12:18:26;100593.50;;;21.86;59.00
69780;BME280;57052;55.602;38.096;2023-05-23T12:20:52;100597.66;;;21.92;59.44
69780;BME280;57052;55.602;38.096;2023-05-23T12:23:20;100546.28;;;21.66;59.36
69780;BME280;57052;55.602;38.096;2023-05-23T12:25:51;100589.66;;;21.99;58.62
69780;BME280;57052;55.602;38.096;2023-05-23T12:28:18;100594.78;;;22.09;58.62
69780;BME280;57052;55.602;38.096;2023-05-23T12:30:45;100590.44;;;22.20;58.14
69780;BME280;57052;55.602;38.096;2023-05-23T12:33:11;100599.91;;;22.31;58.52
69780;BME280;57052;55.602;38.096;2023-05-23T12:35:37;100578.00;;;22.34;58.27
69780;BME280;57052;55.602;38.096;2023-05-23T12:38:07;100580.91;;;22.50;58.03
69780;BME280;57052;55.602;38.096;2023-05-23T12:40:32;100575.06;;;22.52;57.73
69780;BME280;57052;55.602;38.096;2023-05-23T12:42:58;100583.03;;;22.65;57.69
69780;BME280;57052;55.602;38.096;2023-05-23T12:45:34;100592.72;;;22.71;57.73
69780;BME280;57052;55.602;38.096;2023-05-23T12:48:01;100584.22;;;22.76;57.54
69780;BME280;57052;55.602;38.096;2023-05-23T12:50:28;100579.16;;;22.78;56.98
69780;BME280;57052;55.602;38.096;2023-05-23T12:52:54;100579.41;;;22.85;56.85
69780;BME280;57052;55.602;38.096;2023-05-23T12:55:20;100579.19;;;22.90;56.29
69780;BME280;57052;55.602;38.096;2023-05-23T12:57:47;100584.38;;;22.92;56.39
69780;BME280;57052;55.602;38.096;2023-05-23T13:00:13;100583.09;;;22.89;56.20
69780;BME280;57052;55.602;38.096;2023-05-23T13:02:38;100573.56;;;22.87;55.80
69780;BME280;57052;55.602;38.096;2023-05-23T13:05:05;100581.47;;;22.88;55.82